createdAt,value
2018-02-20T00:01:43.788Z,0.00
2018-02-20T00:04:11.269Z,0.00
2018-02-20T00:06:38.836Z,0.10
2018-02-20T00:09:06.299Z,0.10
2018-02-20T00:11:33.869Z,0.00
2018-02-20T00:14:02.269Z,0.00
2018-02-20T00:16:29.731Z,0.00
2018-02-20T00:18:57.204Z,0.00
2018-02-20T00:21:24.676Z,0.00
2018-02-20T00:23:52.148Z,0.00
2018-02-20T00:26:19.613Z,0.10
2018-02-20T00:28:47.188Z,0.10
2018-02-20T00:31:14.656Z,0.10
2018-02-20T00:33:42.116Z,0.10
2018-02-20T00:36:09.584Z,0.10
2018-02-20T00:38:37.048Z,0.10
2018-02-20T00:41:04.508Z,0.10
2018-02-20T00:43:31.988Z,0.10
2018-02-20T00:45:59.448Z,0.10
2018-02-20T00:48:26.936Z,0.10
2018-02-20T00:50:54.512Z,0.10
2018-02-20T00:53:21.965Z,0.00
2018-02-20T00:55:49.504Z,0.00
2018-02-20T00:58:17.723Z,-0.10
2018-02-20T01:00:45.312Z,-0.10
2018-02-20T01:03:12.775Z,-0.10
2018-02-20T01:05:40.255Z,-0.10
2018-02-20T01:08:08.548Z,-0.20
2018-02-20T01:10:36.016Z,-0.20
2018-02-20T01:13:03.480Z,-0.20
2018-02-20T01:15:30.952Z,-0.20
2018-02-20T01:17:58.527Z,-0.30
2018-02-20T01:20:26.092Z,-0.30
2018-02-20T01:22:53.566Z,-0.30
2018-02-20T01:25:21.131Z,-0.30
2018-02-20T01:27:48.615Z,-0.40
2018-02-20T01:30:16.847Z,-0.40
2018-02-20T01:32:44.374Z,-0.40
2018-02-20T01:35:11.841Z,-0.40
2018-02-20T01:37:39.404Z,-0.40
2018-02-20T01:40:06.979Z,-0.40
2018-02-20T01:42:34.454Z,-0.50
2018-02-20T01:45:02.067Z,-0.50
2018-02-20T01:47:30.292Z,-0.50
2018-02-20T01:49:57.877Z,-0.60
2018-02-20T01:52:25.344Z,-0.60
2018-02-20T01:54:52.913Z,-0.60
2018-02-20T01:57:20.388Z,-0.60
2018-02-20T01:59:47.957Z,-0.70
2018-02-20T02:02:15.424Z,-0.70
2018-02-20T02:04:43.002Z,-0.80
2018-02-20T02:07:10.572Z,-0.80
2018-02-20T02:09:38.151Z,-0.80
2018-02-20T02:12:05.623Z,-0.80
2018-02-20T02:14:33.083Z,-0.90
2018-02-20T02:17:00.659Z,-0.90
2018-02-20T02:19:28.224Z,-0.90
2018-02-20T02:21:55.796Z,-0.90
2018-02-20T02:24:23.263Z,-1.00
2018-02-20T02:26:50.836Z,-1.00
2018-02-20T02:29:18.308Z,-1.00
2018-02-20T02:31:45.772Z,-1.00
2018-02-20T02:34:13.249Z,-1.00
2018-02-20T02:36:40.821Z,-1.00
2018-02-20T02:39:09.828Z,-1.10
2018-02-20T02:41:37.296Z,-1.10
2018-02-20T02:44:04.963Z,-1.10
2018-02-20T02:46:32.544Z,-1.20
2018-02-20T02:49:01.548Z,-1.20
2018-02-20T02:51:29.112Z,-1.20
2018-02-20T02:53:56.684Z,-1.20
2018-02-20T02:56:24.157Z,-1.20
2018-02-20T02:58:51.737Z,-1.20
2018-02-20T03:01:19.968Z,-1.30
2018-02-20T03:03:47.537Z,-1.30
2018-02-20T03:06:15.060Z,-1.30
2018-02-20T03:08:42.628Z,-1.30
2018-02-20T03:11:10.092Z,-1.30
2018-02-20T03:13:37.576Z,-1.30
2018-02-20T03:16:05.060Z,-1.40
2018-02-20T03:18:32.525Z,-1.40
2018-02-20T03:20:59.995Z,-1.40
2018-02-20T03:23:27.547Z,-1.40
2018-02-20T03:25:55.012Z,-1.40
2018-02-20T03:28:22.477Z,-1.40
2018-02-20T03:30:49.950Z,-1.50
2018-02-20T03:33:17.428Z,-1.50
2018-02-20T03:35:44.897Z,-1.50
2018-02-20T03:38:12.464Z,-1.50
2018-02-20T03:40:39.924Z,-1.50
2018-02-20T03:43:07.420Z,-1.50
2018-02-20T03:45:35.652Z,-1.50
2018-02-20T03:48:03.124Z,-1.50
2018-02-20T03:50:30.592Z,-1.50
2018-02-20T03:52:58.061Z,-1.50
2018-02-20T03:55:25.537Z,-1.50
2018-02-20T03:57:53.000Z,-1.50
2018-02-20T04:00:20.471Z,-1.50
2018-02-20T04:02:47.989Z,-1.50
2018-02-20T04:05:15.460Z,-1.50
2018-02-20T04:07:43.020Z,-1.50
2018-02-20T04:10:10.495Z,-1.50
2018-02-20T04:12:38.063Z,-1.50
2018-02-20T04:15:05.535Z,-1.50
2018-02-20T04:17:32.996Z,-1.50
2018-02-20T04:20:00.488Z,-1.50
2018-02-20T04:22:27.960Z,-1.50
2018-02-20T04:24:55.520Z,-1.50
2018-02-20T04:27:22.975Z,-1.60
2018-02-20T04:29:50.556Z,-1.60
2018-02-20T04:32:18.016Z,-1.60
2018-02-20T04:34:45.484Z,-1.60
2018-02-20T04:37:12.964Z,-1.60
2018-02-20T04:39:40.534Z,-1.60
2018-02-20T04:42:08.013Z,-1.60
2018-02-20T04:44:35.484Z,-1.60
2018-02-20T04:47:02.955Z,-1.70
2018-02-20T04:49:30.429Z,-1.70
2018-02-20T04:51:57.982Z,-1.70
2018-02-20T04:54:25.600Z,-1.70
2018-02-20T04:56:53.125Z,-1.70
2018-02-20T04:59:20.704Z,-1.70
2018-02-20T05:01:48.196Z,-1.70
2018-02-20T05:04:15.739Z,-1.70
2018-02-20T05:06:43.321Z,-1.70
2018-02-20T05:09:10.888Z,-1.80
2018-02-20T05:11:38.564Z,-1.80
2018-02-20T05:14:06.032Z,-1.80
2018-02-20T05:16:33.596Z,-1.80
2018-02-20T05:19:01.069Z,-1.80
2018-02-20T05:21:28.532Z,-1.90
2018-02-20T05:23:56.108Z,-1.90
2018-02-20T05:26:23.576Z,-1.90
2018-02-20T05:28:51.062Z,-1.90
2018-02-20T05:31:18.623Z,-1.90
2018-02-20T05:33:46.090Z,-1.90
2018-02-20T05:36:13.560Z,-1.90
2018-02-20T05:38:41.025Z,-2.00
2018-02-20T05:41:08.505Z,-2.00
2018-02-20T05:43:35.963Z,-2.00
2018-02-20T05:46:03.439Z,-2.00
2018-02-20T05:48:31.008Z,-2.00
2018-02-20T05:50:58.469Z,-2.00
2018-02-20T05:53:25.948Z,-2.10
2018-02-20T05:55:53.408Z,-2.10
2018-02-20T05:58:20.891Z,-2.10
2018-02-20T06:00:48.360Z,-2.20
2018-02-20T06:03:15.820Z,-2.10
2018-02-20T06:05:43.460Z,-2.20
2018-02-20T06:08:10.964Z,-2.20
2018-02-20T06:10:38.436Z,-2.20
2018-02-20T06:13:05.912Z,-2.20
2018-02-20T06:15:33.379Z,-2.20
2018-02-20T06:18:00.948Z,-2.20
2018-02-20T06:20:28.420Z,-2.20
2018-02-20T06:22:55.983Z,-2.20
2018-02-20T06:25:23.447Z,-2.30
2018-02-20T06:27:50.922Z,-2.30
2018-02-20T06:30:18.384Z,-2.30
2018-02-20T06:32:45.855Z,-2.30
2018-02-20T06:35:13.336Z,-2.30
2018-02-20T06:37:40.907Z,-2.30
2018-02-20T06:40:08.477Z,-2.20
2018-02-20T06:42:35.940Z,-2.10
2018-02-20T06:45:03.519Z,-2.10
2018-02-20T06:47:30.991Z,-2.10
2018-02-20T06:49:58.471Z,-2.20
2018-02-20T06:52:26.028Z,-2.20
2018-02-20T06:54:53.500Z,-2.20
2018-02-20T06:57:20.980Z,-2.20
2018-02-20T06:59:48.444Z,-2.20
2018-02-20T07:02:16.004Z,-2.20
2018-02-20T07:04:43.580Z,-2.20
2018-02-20T07:07:11.049Z,-2.10
2018-02-20T07:09:38.571Z,-2.10
2018-02-20T07:12:06.098Z,-2.10
2018-02-20T07:14:33.568Z,-2.10
2018-02-20T07:17:01.039Z,-2.00
2018-02-20T07:19:29.327Z,-1.90
2018-02-20T07:21:56.784Z,-2.00
2018-02-20T07:24:24.361Z,-1.90
2018-02-20T07:26:51.844Z,-1.80
2018-02-20T07:29:19.324Z,-1.80
2018-02-20T07:31:47.558Z,-1.70
2018-02-20T07:34:15.056Z,-1.70
2018-02-20T07:36:42.528Z,-1.60
2018-02-20T07:39:10.097Z,-1.60
2018-02-20T07:41:37.568Z,-1.50
2018-02-20T07:44:05.120Z,-1.50
2018-02-20T07:46:32.580Z,-1.40
2018-02-20T07:49:00.048Z,-1.30
2018-02-20T07:51:27.555Z,-1.20
2018-02-20T07:53:55.129Z,-1.10
2018-02-20T07:56:22.691Z,-1.10
2018-02-20T07:58:50.164Z,-0.90
2018-02-20T08:01:17.743Z,-0.70
2018-02-20T08:03:46.740Z,-0.60
2018-02-20T08:06:14.209Z,-0.60
2018-02-20T08:08:41.676Z,-0.50
2018-02-20T08:11:09.248Z,-0.50
2018-02-20T08:13:36.716Z,-0.40
2018-02-20T08:16:04.463Z,-0.30
2018-02-20T08:18:31.881Z,-0.30
2018-02-20T08:21:00.167Z,-0.10
2018-02-20T08:23:27.656Z,-0.10
2018-02-20T08:25:55.883Z,0.00
2018-02-20T08:28:23.345Z,0.00
2018-02-20T08:30:50.832Z,0.00
2018-02-20T08:33:18.316Z,0.10
2018-02-20T08:35:45.771Z,0.20
2018-02-20T08:38:13.252Z,0.20
2018-02-20T08:40:40.723Z,0.30
2018-02-20T08:43:08.204Z,0.40
2018-02-20T08:45:35.685Z,0.50
2018-02-20T08:48:03.148Z,0.60
2018-02-20T08:50:30.708Z,0.60
2018-02-20T08:52:58.191Z,0.70
2018-02-20T08:55:25.644Z,0.80
2018-02-20T08:57:53.212Z,0.90
2018-02-20T09:00:20.688Z,1.00
2018-02-20T09:02:48.248Z,1.00
2018-02-20T09:05:15.725Z,1.10
2018-02-20T09:07:43.346Z,1.20
2018-02-20T09:10:11.565Z,1.30
2018-02-20T09:12:39.058Z,1.30
2018-02-20T09:15:06.527Z,1.40
2018-02-20T09:17:34.096Z,1.50
2018-02-20T09:20:01.571Z,1.60
2018-02-20T09:22:29.034Z,1.70
2018-02-20T09:24:56.496Z,1.80
2018-02-20T09:27:23.955Z,1.90
2018-02-20T09:29:51.548Z,2.00
2018-02-20T09:32:19.012Z,2.10
2018-02-20T09:34:46.473Z,2.20
2018-02-20T09:37:13.941Z,2.20
2018-02-20T09:39:41.424Z,2.30
2018-02-20T09:42:08.945Z,2.40
2018-02-20T09:44:36.455Z,2.50
2018-02-20T09:47:03.941Z,2.60
2018-02-20T09:49:31.404Z,2.70
2018-02-20T09:51:58.884Z,2.80
2018-02-20T09:54:26.352Z,3.00
2018-02-20T09:56:53.912Z,3.30
2018-02-20T09:59:21.376Z,3.50
2018-02-20T10:01:48.956Z,3.70
2018-02-20T10:04:16.406Z,4.00
2018-02-20T10:06:43.868Z,4.20
2018-02-20T10:09:11.336Z,4.30
2018-02-20T10:11:38.836Z,4.40
2018-02-20T10:14:06.402Z,4.60
2018-02-20T10:16:33.956Z,4.70
2018-02-20T10:19:01.455Z,4.80
2018-02-20T10:21:28.907Z,4.90
2018-02-20T10:23:56.379Z,5.00
2018-02-20T10:26:23.856Z,5.10
2018-02-20T10:28:51.528Z,5.20
2018-02-20T10:31:19.004Z,5.40
2018-02-20T10:33:46.469Z,5.50
2018-02-20T10:36:13.939Z,5.60
2018-02-20T10:38:41.501Z,5.60
2018-02-20T10:41:08.976Z,5.80
2018-02-20T10:43:36.544Z,5.90
2018-02-20T10:46:04.020Z,6.10
2018-02-20T10:48:31.496Z,6.20
2018-02-20T10:50:58.961Z,6.20
2018-02-20T10:53:27.955Z,6.30
2018-02-20T10:55:55.419Z,6.30
2018-02-20T10:58:22.883Z,6.40
2018-02-20T11:00:50.569Z,6.40
2018-02-20T11:03:18.045Z,6.40
2018-02-20T11:05:45.524Z,6.40
2018-02-20T11:08:13.089Z,6.50
2018-02-20T11:10:40.655Z,6.60
2018-02-20T11:13:08.135Z,6.80
2018-02-20T11:15:35.696Z,6.90
2018-02-20T11:18:03.416Z,6.90
2018-02-20T11:20:31.640Z,7.00
2018-02-20T11:22:59.121Z,7.00
2018-02-20T11:25:26.596Z,7.20
2018-02-20T11:27:54.063Z,7.30
2018-02-20T11:30:21.528Z,7.50
2018-02-20T11:32:48.984Z,7.70
2018-02-20T11:35:16.448Z,8.10
2018-02-20T11:37:43.947Z,8.50
2018-02-20T11:40:11.432Z,8.80
2018-02-20T11:42:38.890Z,9.20
2018-02-20T11:45:06.458Z,9.50
2018-02-20T11:47:33.929Z,9.70
2018-02-20T11:50:01.499Z,9.90
2018-02-20T11:52:28.961Z,10.20
2018-02-20T11:54:56.442Z,10.40
2018-02-20T11:57:23.901Z,10.60
2018-02-20T11:59:51.368Z,10.90
2018-02-20T12:02:18.948Z,11.10
2018-02-20T12:04:46.416Z,11.30
2018-02-20T12:07:13.895Z,11.20
2018-02-20T12:09:41.468Z,11.30
2018-02-20T12:12:08.943Z,11.30
2018-02-20T12:14:36.428Z,11.50
2018-02-20T12:17:04.680Z,11.60
2018-02-20T12:19:32.157Z,11.60
2018-02-20T12:21:59.723Z,11.90
2018-02-20T12:24:27.292Z,12.10
2018-02-20T12:26:54.768Z,12.30
2018-02-20T12:29:22.256Z,12.30
2018-02-20T12:31:49.744Z,12.60
2018-02-20T12:34:17.992Z,12.20
2018-02-20T12:36:45.468Z,12.20
2018-02-20T12:39:12.932Z,12.30
2018-02-20T12:41:40.510Z,12.40
2018-02-20T12:44:07.964Z,12.80
2018-02-20T12:46:35.455Z,13.40
2018-02-20T12:49:02.944Z,13.70
2018-02-20T12:51:31.200Z,13.80
2018-02-20T12:53:58.771Z,13.80
2018-02-20T12:56:26.239Z,14.00
2018-02-20T12:58:53.724Z,13.90
2018-02-20T13:01:21.202Z,14.00
2018-02-20T13:03:48.759Z,14.10
2018-02-20T13:06:16.270Z,14.30
2018-02-20T13:08:44.483Z,15.10
2018-02-20T13:11:11.949Z,15.10
2018-02-20T13:13:39.456Z,15.40
2018-02-20T13:16:07.028Z,15.10
2018-02-20T13:18:35.308Z,14.90
2018-02-20T13:21:02.929Z,14.80
2018-02-20T13:23:30.456Z,14.70
2018-02-20T13:25:57.916Z,14.60
2018-02-20T13:28:25.400Z,14.80
2018-02-20T13:30:52.964Z,15.10
2018-02-20T13:33:20.440Z,15.20
2018-02-20T13:35:47.919Z,15.10
2018-02-20T13:38:15.471Z,14.90
2018-02-20T13:40:43.044Z,14.80
2018-02-20T13:43:10.515Z,14.50
2018-02-20T13:45:38.088Z,14.30
2018-02-20T13:48:05.656Z,14.00
2018-02-20T13:50:33.147Z,14.00
2018-02-20T13:53:00.608Z,14.00
2018-02-20T13:55:28.072Z,13.70
2018-02-20T13:57:55.551Z,13.40
2018-02-20T14:00:23.103Z,13.30
2018-02-20T14:02:50.571Z,13.30
2018-02-20T14:05:18.044Z,13.10
2018-02-20T14:07:45.516Z,13.00
2018-02-20T14:10:13.081Z,12.80
2018-02-20T14:12:41.285Z,14.20
2018-02-20T14:15:08.839Z,14.20
2018-02-20T14:17:36.312Z,15.30
2018-02-20T14:20:03.789Z,16.60
2018-02-20T14:22:31.255Z,17.50
2018-02-20T14:24:58.730Z,18.60
2018-02-20T14:27:26.199Z,19.00
2018-02-20T14:29:53.675Z,19.40
2018-02-20T14:32:21.148Z,19.60
2018-02-20T14:34:49.311Z,20.30
2018-02-20T14:37:16.787Z,19.60
2018-02-20T14:39:44.261Z,19.30
2018-02-20T14:42:11.846Z,19.40
2018-02-20T14:44:39.408Z,19.20
2018-02-20T14:47:06.967Z,19.30
2018-02-20T14:49:34.540Z,19.60
2018-02-20T14:52:02.016Z,19.50
2018-02-20T14:54:29.489Z,19.10
2018-02-20T14:56:57.068Z,19.50
2018-02-20T14:59:24.544Z,19.90
2018-02-20T15:01:52.148Z,19.90
2018-02-20T15:04:19.672Z,19.90
2018-02-20T15:06:47.132Z,19.80
2018-02-20T15:09:14.604Z,19.00
2018-02-20T15:11:42.075Z,18.60
2018-02-20T15:14:09.644Z,18.30
2018-02-20T15:16:38.624Z,16.80
2018-02-20T15:19:06.092Z,16.80
2018-02-20T15:21:33.578Z,16.50
2018-02-20T15:24:01.065Z,16.10
2018-02-20T15:26:28.528Z,15.60
2018-02-20T15:28:55.996Z,15.20
2018-02-20T15:31:23.568Z,15.00
2018-02-20T15:33:51.052Z,14.60
2018-02-20T15:36:18.060Z,14.20
2018-02-20T15:38:45.209Z,13.80
2018-02-20T15:41:12.688Z,13.40
2018-02-20T15:43:40.201Z,13.20
2018-02-20T15:46:07.678Z,13.10
2018-02-20T15:48:35.164Z,12.80
2018-02-20T15:51:03.419Z,13.10
2018-02-20T15:53:31.024Z,13.10
2018-02-20T15:55:58.571Z,13.20
2018-02-20T15:58:26.136Z,13.10
2018-02-20T16:00:53.615Z,12.80
2018-02-20T16:03:21.180Z,12.80
2018-02-20T16:05:48.654Z,12.70
2018-02-20T16:08:17.402Z,12.40
2018-02-20T16:10:44.884Z,12.00
2018-02-20T16:13:12.397Z,12.00
2018-02-20T16:15:40.453Z,11.80
2018-02-20T16:18:07.965Z,11.30
2018-02-20T16:20:35.524Z,10.70
2018-02-20T16:23:03.126Z,10.10
2018-02-20T16:25:31.360Z,9.10
2018-02-20T16:27:58.844Z,9.00
2018-02-20T16:30:26.311Z,8.50
2018-02-20T16:32:53.884Z,8.20
2018-02-20T16:35:21.461Z,7.90
2018-02-20T16:37:48.924Z,7.60
2018-02-20T16:40:16.500Z,7.50
2018-02-20T16:42:43.978Z,7.40
2018-02-20T16:45:11.442Z,7.20
2018-02-20T16:47:39.020Z,7.00
2018-02-20T16:50:06.580Z,6.80
2018-02-20T16:52:34.040Z,6.70
2018-02-20T16:55:01.516Z,6.50
2018-02-20T16:57:28.992Z,6.40
2018-02-20T16:59:56.452Z,6.30
2018-02-20T17:02:23.929Z,6.10
2018-02-20T17:04:51.495Z,6.00
2018-02-20T17:07:18.956Z,5.90
2018-02-20T17:09:46.425Z,5.80
2018-02-20T17:12:13.919Z,5.70
2018-02-20T17:14:41.383Z,5.70
2018-02-20T17:17:08.847Z,5.50
2018-02-20T17:19:36.332Z,5.40
2018-02-20T17:22:03.941Z,5.40
2018-02-20T17:24:31.456Z,5.40
2018-02-20T17:26:58.919Z,5.40
2018-02-20T17:29:26.404Z,5.40
2018-02-20T17:31:53.878Z,5.30
2018-02-20T17:34:21.332Z,5.30
2018-02-20T17:36:48.801Z,5.30
2018-02-20T17:39:16.255Z,5.30
2018-02-20T17:41:43.751Z,5.20
2018-02-20T17:44:11.208Z,5.10
2018-02-20T17:46:38.684Z,5.00
2018-02-20T17:49:06.162Z,5.00
2018-02-20T17:51:33.621Z,5.00
2018-02-20T17:54:01.093Z,4.90
2018-02-20T17:56:29.327Z,4.80
2018-02-20T17:58:57.565Z,4.80
2018-02-20T18:01:25.028Z,4.80
2018-02-20T18:03:52.489Z,4.70
2018-02-20T18:06:19.960Z,4.70
2018-02-20T18:08:47.431Z,4.70
2018-02-20T18:11:14.912Z,4.60
2018-02-20T18:13:42.368Z,4.60
2018-02-20T18:16:09.853Z,4.60
2018-02-20T18:18:37.328Z,4.50
2018-02-20T18:21:04.897Z,4.50
2018-02-20T18:23:32.414Z,4.40
2018-02-20T18:26:00.652Z,4.30
2018-02-20T18:28:28.228Z,4.30
2018-02-20T18:30:55.697Z,4.20
2018-02-20T18:33:23.271Z,4.10
2018-02-20T18:35:50.733Z,4.10
2018-02-20T18:38:18.304Z,4.00
2018-02-20T18:40:45.764Z,4.00
2018-02-20T18:43:13.352Z,4.00
2018-02-20T18:45:40.808Z,3.90
2018-02-20T18:48:08.276Z,3.90
2018-02-20T18:50:35.861Z,3.90
2018-02-20T18:53:03.339Z,3.80
2018-02-20T18:55:30.800Z,3.70
2018-02-20T18:57:58.264Z,3.80
2018-02-20T19:00:25.732Z,3.70
2018-02-20T19:02:53.208Z,3.70
2018-02-20T19:05:20.656Z,3.60
2018-02-20T19:07:48.120Z,3.60
2018-02-20T19:10:15.617Z,3.50
2018-02-20T19:12:43.188Z,3.50
2018-02-20T19:15:10.755Z,3.50
2018-02-20T19:17:38.384Z,3.40
2018-02-20T19:20:05.845Z,3.40
2018-02-20T19:22:34.120Z,3.20
2018-02-20T19:25:02.379Z,3.20
2018-02-20T19:27:29.848Z,3.20
2018-02-20T19:29:57.320Z,3.10
2018-02-20T19:32:24.891Z,3.10
2018-02-20T19:34:55.205Z,3.10
2018-02-20T19:37:22.668Z,3.00
2018-02-20T19:39:50.161Z,3.00
2018-02-20T19:42:17.733Z,3.00
2018-02-20T19:44:45.193Z,2.90
2018-02-20T19:47:12.681Z,2.90
2018-02-20T19:49:40.145Z,2.90
2018-02-20T19:52:07.599Z,2.80
2018-02-20T19:54:35.069Z,2.80
2018-02-20T19:57:02.534Z,2.70
2018-02-20T19:59:30.027Z,2.70
2018-02-20T20:01:57.592Z,2.70
2018-02-20T20:04:25.179Z,2.60
2018-02-20T20:06:53.444Z,2.60
2018-02-20T20:09:20.916Z,2.60
2018-02-20T20:11:48.381Z,2.60
2018-02-20T20:14:15.845Z,2.50
2018-02-20T20:16:43.315Z,2.40
2018-02-20T20:19:10.776Z,2.40
2018-02-20T20:21:38.264Z,2.40
2018-02-20T20:24:05.724Z,2.40
2018-02-20T20:26:33.184Z,2.30
2018-02-20T20:29:00.669Z,2.30
2018-02-20T20:31:28.125Z,2.30
2018-02-20T20:33:55.617Z,2.20
2018-02-20T20:36:23.071Z,2.20
2018-02-20T20:38:50.553Z,2.20
2018-02-20T20:41:18.128Z,2.10
2018-02-20T20:43:45.696Z,2.10
2018-02-20T20:46:13.164Z,2.10
2018-02-20T20:48:40.628Z,2.10
2018-02-20T20:51:08.085Z,2.00
2018-02-20T20:53:35.551Z,2.00
2018-02-20T20:56:03.036Z,2.00
2018-02-20T20:58:30.488Z,2.00
2018-02-20T21:00:57.956Z,2.00
2018-02-20T21:03:25.457Z,1.90
2018-02-20T21:05:52.921Z,1.90
2018-02-20T21:08:20.491Z,1.90
2018-02-20T21:10:47.948Z,1.90
2018-02-20T21:13:15.428Z,1.90
2018-02-20T21:15:42.892Z,1.90
2018-02-20T21:18:10.352Z,1.90
2018-02-20T21:20:37.831Z,1.90
2018-02-20T21:23:05.288Z,2.00
2018-02-20T21:25:32.784Z,2.00
2018-02-20T21:28:00.354Z,2.00
2018-02-20T21:30:27.824Z,2.00
2018-02-20T21:32:55.300Z,2.10
2018-02-20T21:35:23.516Z,2.10
2018-02-20T21:37:51.743Z,2.10
2018-02-20T21:40:19.209Z,2.10
2018-02-20T21:42:46.690Z,2.20
2018-02-20T21:45:14.201Z,2.20
2018-02-20T21:47:42.455Z,2.20
2018-02-20T21:50:09.953Z,2.20
2018-02-20T21:52:37.501Z,2.20
2018-02-20T21:55:04.961Z,2.20
2018-02-20T21:57:32.428Z,2.20
2018-02-20T21:59:59.912Z,2.20
2018-02-20T22:02:27.393Z,2.10
2018-02-20T22:04:54.863Z,2.10
2018-02-20T22:07:22.424Z,2.00
2018-02-20T22:09:49.895Z,1.90
2018-02-20T22:12:17.360Z,1.90
2018-02-20T22:14:44.836Z,1.90
2018-02-20T22:17:12.307Z,1.80
2018-02-20T22:19:39.907Z,1.70
2018-02-20T22:22:08.180Z,1.70
2018-02-20T22:24:35.728Z,1.70
2018-02-20T22:27:04.062Z,1.70
2018-02-20T22:29:31.544Z,1.60
2018-02-20T22:31:59.059Z,1.60
2018-02-20T22:34:26.528Z,1.70
2018-02-20T22:36:54.050Z,1.70
2018-02-20T22:39:21.642Z,1.60
2018-02-20T22:41:49.118Z,1.70
2018-02-20T22:44:16.712Z,1.70
2018-02-20T22:46:44.187Z,1.70
2018-02-20T22:49:11.680Z,1.70
2018-02-20T22:51:39.944Z,1.70
2018-02-20T22:54:07.427Z,1.70
2018-02-20T22:56:34.900Z,1.80
2018-02-20T22:59:02.459Z,1.80
2018-02-20T23:01:30.022Z,1.80
2018-02-20T23:03:57.607Z,1.80
2018-02-20T23:06:25.072Z,1.80
2018-02-20T23:08:52.535Z,1.70
2018-02-20T23:11:31.960Z,1.70
2018-02-20T23:13:59.436Z,1.60
2018-02-20T23:16:26.929Z,1.50
2018-02-20T23:18:54.400Z,1.40
2018-02-20T23:21:21.867Z,1.40
2018-02-20T23:23:49.448Z,1.30
2018-02-20T23:26:17.111Z,1.20
2018-02-20T23:28:44.684Z,1.20
2018-02-20T23:31:12.259Z,1.10
2018-02-20T23:33:39.824Z,1.00
2018-02-20T23:36:07.320Z,1.00
2018-02-20T23:38:35.587Z,0.90
2018-02-20T23:41:03.155Z,0.80
2018-02-20T23:43:30.623Z,0.80
2018-02-20T23:45:58.093Z,0.80
2018-02-20T23:48:25.664Z,0.70
2018-02-20T23:50:58.940Z,0.70
2018-02-20T23:53:26.440Z,0.70
2018-02-20T23:55:53.904Z,0.60
2018-02-20T23:58:21.391Z,0.60
